Terminal Aerodrome Forecast
Issued by NWS

Home | Current Version | Previous Version | Text Only | Print | Product List | Glossary On
Versions: 1 2 3 4 5 6 7 8 9 10 11 12 13 14 15 16
765
FTUS41 KBGM 291736 AAB
TAFRME
TAF AMD
KRME 291736Z 2918/3018 22006KT P6SM -SHRA BKN050
      TEMPO 2918/2922 TSRA BKN050CB
     FM300000 VRB03KT P6SM -SHRA OVC060
     FM300500 VRB03KT P6SM OVC090
     FM301500 25011KT P6SM BKN050=

USA.gov is the U.S. government's official web portal to all federal, state and local government web resources and services.